Time;durP1;ratioP1;P1;durP2;ratioP2;P2;SDS_P1;SDS_P2;PMS_P1;PMS_P2;Temp;Humidity;BMP_temperature;BMP_pressure;BME280_temperature;BME280_humidity;BME280_pressure;Samples;Min_cycle;Max_cycle;Signal;HPM_P1;HPM_P2
2021/10/10 00:01:02;;;;;;;12.00;8.30;;;10.30;90.00;;;;;;2094149;28;20037;-91
2021/10/10 00:02:21;;;;;;;12.73;8.40;;;10.30;90.00;;;;;;2095131;28;20434;-91
2021/10/10 00:03:40;;;;;;;11.15;8.50;;;10.30;90.00;;;;;;2105363;28;20032;-91
2021/10/10 00:04:59;;;;;;;12.18;8.88;;;10.30;90.00;;;;;;2103570;28;20048;-91
2021/10/10 00:06:18;;;;;;;11.38;8.50;;;10.30;90.00;;;;;;2093473;28;20028;-91
2021/10/10 00:07:41;;;;;;;13.35;8.95;;;10.30;90.00;;;;;;2100185;28;20041;-91
2021/10/10 00:09:00;;;;;;;11.85;8.52;;;10.30;90.00;;;;;;2097495;28;20037;-91
2021/10/10 00:10:19;;;;;;;12.02;8.63;;;10.20;90.00;;;;;;2101186;28;20036;-91
2021/10/10 00:11:38;;;;;;;11.88;8.77;;;10.20;90.00;;;;;;2107426;28;20039;-91
2021/10/10 00:12:58;;;;;;;13.00;8.82;;;10.20;90.10;;;;;;2098080;28;20036;-91
2021/10/10 00:14:17;;;;;;;13.23;9.32;;;10.20;90.10;;;;;;2095053;28;20045;-91
2021/10/10 00:15:37;;;;;;;11.77;8.82;;;10.20;90.10;;;;;;2103502;28;20095;-91
2021/10/10 00:16:56;;;;;;;11.85;8.40;;;10.10;90.10;;;;;;2101329;28;20044;-91
2021/10/10 00:18:15;;;;;;;12.18;8.95;;;10.10;90.10;;;;;;2097518;28;20094;-91
2021/10/10 00:19:34;;;;;;;11.80;9.10;;;10.10;90.10;;;;;;2086989;28;20052;-91
2021/10/10 00:20:55;;;;;;;13.48;9.27;;;10.10;90.10;;;;;;2085161;28;20033;-92
2021/10/10 00:22:14;;;;;;;12.90;8.90;;;10.00;90.10;;;;;;2095044;28;20036;-91
2021/10/10 00:23:33;;;;;;;13.02;9.20;;;10.10;90.20;;;;;;2104812;28;20040;-90
2021/10/10 00:24:52;;;;;;;15.00;9.98;;;10.10;90.20;;;;;;2107260;28;20091;-91
2021/10/10 00:26:12;;;;;;;13.93;9.57;;;10.00;90.20;;;;;;2109317;28;20032;-91
2021/10/10 00:27:31;;;;;;;13.90;10.00;;;10.00;90.20;;;;;;2091607;28;20097;-92
2021/10/10 00:28:51;;;;;;;14.98;9.13;;;10.00;90.20;;;;;;2106513;28;20039;-90
2021/10/10 00:30:10;;;;;;;12.95;9.63;;;10.00;90.20;;;;;;2102863;28;20036;-91
2021/10/10 00:31:29;;;;;;;12.25;8.95;;;10.00;90.20;;;;;;2106154;28;20040;-91
2021/10/10 00:32:49;;;;;;;11.63;8.70;;;10.00;90.20;;;;;;2101634;28;20044;-91
2021/10/10 00:34:08;;;;;;;11.68;8.75;;;10.00;90.20;;;;;;2098510;28;20048;-90
2021/10/10 00:35:27;;;;;;;13.77;9.32;;;9.90;90.20;;;;;;2093415;28;20532;-90
2021/10/10 00:36:46;;;;;;;13.80;9.57;;;10.00;90.30;;;;;;2092047;28;20041;-91
2021/10/10 00:38:06;;;;;;;13.35;9.45;;;9.90;90.20;;;;;;2094894;28;20040;-91
2021/10/10 00:39:25;;;;;;;13.18;9.10;;;9.90;90.20;;;;;;2095156;28;20052;-91
2021/10/10 00:40:45;;;;;;;12.65;8.68;;;10.00;90.30;;;;;;2106560;28;20068;-90
2021/10/10 00:42:06;;;;;;;11.90;9.07;;;9.90;90.20;;;;;;2105535;28;20510;-91
2021/10/10 00:43:26;;;;;;;12.23;8.88;;;9.90;90.20;;;;;;2103222;28;20041;-91
2021/10/10 00:44:46;;;;;;;12.13;8.98;;;9.90;90.20;;;;;;2106471;28;20044;-91
2021/10/10 00:46:06;;;;;;;13.23;9.30;;;9.90;90.20;;;;;;2098703;28;20044;-90
2021/10/10 00:47:25;;;;;;;12.35;8.57;;;9.90;90.20;;;;;;2103222;28;20044;-90
2021/10/10 00:48:45;;;;;;;12.52;8.65;;;9.90;90.20;;;;;;2105794;28;20145;-91
2021/10/10 00:50:06;;;;;;;12.77;9.30;;;9.90;90.20;;;;;;2086941;28;20041;-91
2021/10/10 00:51:27;;;;;;;12.20;9.07;;;9.90;90.30;;;;;;2095317;28;20119;-90
2021/10/10 00:52:47;;;;;;;14.55;8.93;;;9.90;90.30;;;;;;2106125;28;20406;-90
2021/10/10 00:54:08;;;;;;;12.07;9.10;;;9.90;90.30;;;;;;2106096;28;20518;-91
2021/10/10 00:55:27;;;;;;;13.23;9.20;;;9.80;90.30;;;;;;2103372;28;20115;-92
2021/10/10 00:56:47;;;;;;;12.93;8.82;;;9.90;90.30;;;;;;2101977;28;20032;-91
2021/10/10 00:58:07;;;;;;;12.65;9.13;;;9.80;90.30;;;;;;2107860;28;20079;-91
2021/10/10 00:59:27;;;;;;;13.30;8.77;;;9.80;90.30;;;;;;2106624;28;20414;-91
2021/10/10 01:00:48;;;;;;;13.05;9.43;;;9.80;90.30;;;;;;2108687;28;20509;-91
2021/10/10 01:02:07;;;;;;;11.88;8.60;;;9.80;90.60;;;;;;2108571;28;20024;-90
2021/10/10 01:03:26;;;;;;;12.10;8.52;;;9.80;90.30;;;;;;2107833;28;20544;-91
2021/10/10 01:04:45;;;;;;;12.68;9.00;;;9.80;90.40;;;;;;2096432;28;20025;-91
2021/10/10 01:06:05;;;;;;;12.75;9.25;;;9.80;90.40;;;;;;2095800;28;20119;-91
2021/10/10 01:07:26;;;;;;;12.70;9.23;;;9.80;90.40;;;;;;2099359;28;20052;-91
2021/10/10 01:08:45;;;;;;;12.60;9.30;;;9.80;90.40;;;;;;2099105;28;20033;-91
2021/10/10 01:10:07;;;;;;;13.60;9.48;;;9.70;90.60;;;;;;2098640;28;20044;-91
2021/10/10 01:11:28;;;;;;;12.00;8.82;;;9.70;90.40;;;;;;2104764;28;20495;-90
2021/10/10 01:12:47;;;;;;;;;;;9.70;90.40;;;;;;2103968;28;20040;-91
2021/10/10 01:14:07;;;;;;;11.77;8.10;;;9.70;90.40;;;;;;2104816;28;19915;-91
2021/10/10 01:15:28;;;;;;;11.20;8.15;;;9.70;90.40;;;;;;2112940;28;20032;-91
2021/10/10 01:16:47;;;;;;;11.73;8.45;;;9.70;90.40;;;;;;2105634;28;20028;-91
2021/10/10 01:18:06;;;;;;;12.20;8.20;;;9.70;90.40;;;;;;2108355;28;20123;-91
2021/10/10 01:19:33;;;;;;;13.10;8.80;;;9.70;90.70;;;;;;2107346;28;20127;-91
2021/10/10 01:20:54;;;;;;;13.32;9.25;;;9.70;90.40;;;;;;2105627;28;20040;-91
2021/10/10 01:22:13;;;;;;;11.18;8.40;;;9.60;90.40;;;;;;2107794;28;20444;-90
2021/10/10 01:23:32;;;;;;;12.00;9.02;;;9.70;90.40;;;;;;2103717;28;20517;-91
2021/10/10 01:24:51;;;;;;;11.85;8.60;;;9.60;90.40;;;;;;2099626;28;20044;-91
2021/10/10 01:26:11;;;;;;;12.05;8.82;;;9.60;90.40;;;;;;2101786;28;20052;-91
2021/10/10 01:27:30;;;;;;;13.05;8.95;;;9.60;90.40;;;;;;2107544;28;20036;-91
2021/10/10 01:28:49;;;;;;;12.80;9.15;;;9.60;90.40;;;;;;2107334;28;20510;-91
2021/10/10 01:30:08;;;;;;;14.07;9.93;;;9.60;90.40;;;;;;2107691;28;20040;-91
2021/10/10 01:31:27;;;;;;;13.38;8.70;;;9.60;90.50;;;;;;2108805;28;20115;-91
2021/10/10 01:32:57;;;;;;;12.40;8.98;;;9.60;90.50;;;;;;2102417;28;20032;-90
2021/10/10 01:34:16;;;;;;;13.60;9.52;;;9.60;90.40;;;;;;2107796;28;20494;-91
2021/10/10 01:35:39;;;;;;;11.45;8.55;;;9.60;90.50;;;;;;2107519;28;20032;-91
2021/10/10 01:36:58;;;;;;;12.25;8.88;;;9.60;90.50;;;;;;2107756;28;20037;-91
2021/10/10 01:38:18;;;;;;;14.02;8.98;;;9.60;90.50;;;;;;2107756;28;20036;-90
2021/10/10 01:39:38;;;;;;;12.35;8.77;;;9.60;90.50;;;;;;2099190;28;20143;-91
2021/10/10 01:40:58;;;;;;;12.93;9.15;;;9.50;90.50;;;;;;2104478;28;20032;-91
2021/10/10 01:42:17;;;;;;;13.35;9.88;;;9.50;90.50;;;;;;2106295;28;20048;-90
2021/10/10 01:43:38;;;;;;;13.27;9.25;;;9.50;90.50;;;;;;2107470;28;20044;-91
2021/10/10 01:44:57;;;;;;;12.80;9.43;;;9.50;90.50;;;;;;2115913;28;20035;-91
2021/10/10 01:46:16;;;;;;;13.10;9.27;;;9.50;90.50;;;;;;2105584;28;20032;-91
2021/10/10 01:47:35;;;;;;;11.65;8.77;;;9.50;90.80;;;;;;2098512;28;20036;-90
2021/10/10 01:48:54;;;;;;;12.73;9.45;;;9.50;90.60;;;;;;2107644;28;20040;-91
2021/10/10 01:50:13;;;;;;;13.38;9.52;;;9.50;90.70;;;;;;2106741;28;20032;-91
2021/10/10 01:51:32;;;;;;;12.55;9.40;;;9.40;90.50;;;;;;2104660;28;20490;-90
2021/10/10 01:52:52;;;;;;;12.50;8.75;;;9.50;90.60;;;;;;2103607;28;20044;-91
2021/10/10 01:54:11;;;;;;;12.82;9.48;;;9.40;90.60;;;;;;2116011;28;20099;-89
2021/10/10 01:55:30;;;;;;;14.55;9.02;;;9.40;90.60;;;;;;2112682;28;20037;-89
2021/10/10 01:56:49;;;;;;;13.15;9.18;;;9.40;90.60;;;;;;2109437;28;20067;-91
2021/10/10 01:58:09;;;;;;;12.75;9.85;;;9.40;90.60;;;;;;2104576;28;20448;-90
2021/10/10 01:59:28;;;;;;;13.75;9.73;;;9.40;90.60;;;;;;2105977;28;20032;-91
2021/10/10 02:00:48;;;;;;;13.75;9.75;;;9.40;90.60;;;;;;2106598;28;20032;-91
2021/10/10 02:02:07;;;;;;;13.02;10.25;;;9.40;90.60;;;;;;2107594;28;20040;-91
2021/10/10 02:03:26;;;;;;;13.73;9.52;;;9.40;90.60;;;;;;2100152;28;20040;-91
2021/10/10 02:04:45;;;;;;;13.85;9.77;;;9.40;90.60;;;;;;2099261;28;20045;-90
2021/10/10 02:06:05;;;;;;;14.35;10.10;;;9.40;90.60;;;;;;2097793;28;20032;-90
2021/10/10 02:07:25;;;;;;;14.18;10.20;;;9.40;90.60;;;;;;2108586;28;20043;-91
2021/10/10 02:08:44;;;;;;;13.38;10.10;;;9.40;90.60;;;;;;2105634;28;20470;-91
2021/10/10 02:10:05;;;;;;;12.55;9.38;;;9.30;90.60;;;;;;2099143;28;20037;-91
2021/10/10 02:11:24;;;;;;;13.63;9.60;;;9.30;90.60;;;;;;2106437;28;20401;-90
2021/10/10 02:12:44;;;;;;;15.10;10.23;;;9.30;90.60;;;;;;2095671;28;20107;-91
2021/10/10 02:14:03;;;;;;;13.88;9.48;;;9.30;90.90;;;;;;2097152;28;20514;-90
2021/10/10 02:15:22;;;;;;;15.18;10.18;;;9.30;90.60;;;;;;2104016;28;20429;-90
2021/10/10 02:16:41;;;;;;;14.32;9.75;;;9.30;90.60;;;;;;2106376;28;20039;-90
2021/10/10 02:18:00;;;;;;;15.55;10.52;;;9.30;90.60;;;;;;2106616;28;20032;-90
2021/10/10 02:19:19;;;;;;;15.15;10.38;;;9.30;90.60;;;;;;2107089;28;20040;-90
2021/10/10 02:20:39;;;;;;;14.68;9.77;;;9.30;90.60;;;;;;2104795;28;20489;-91
2021/10/10 02:21:58;;;;;;;14.60;9.77;;;9.30;90.60;;;;;;2095575;28;20044;-91
2021/10/10 02:23:18;;;;;;;14.95;10.20;;;9.30;90.60;;;;;;2092369;28;20041;-90
2021/10/10 02:24:37;;;;;;;13.40;9.88;;;9.30;90.70;;;;;;2107529;28;20036;-91
2021/10/10 02:25:56;;;;;;;13.98;9.45;;;9.30;90.70;;;;;;2094769;28;20025;-90
2021/10/10 02:27:16;;;;;;;13.80;9.52;;;9.30;90.70;;;;;;2077601;28;20038;-91
2021/10/10 02:28:35;;;;;;;13.38;9.57;;;9.30;90.70;;;;;;2089366;28;20040;-90
2021/10/10 02:29:54;;;;;;;13.15;9.40;;;9.20;90.70;;;;;;2103444;28;20036;-91
2021/10/10 02:31:14;;;;;;;13.90;9.75;;;9.20;90.60;;;;;;2094596;28;20581;-91
2021/10/10 02:32:33;;;;;;;14.25;10.50;;;9.30;90.70;;;;;;2091866;28;20562;-91
2021/10/10 02:33:52;;;;;;;13.73;9.70;;;9.20;90.70;;;;;;2097755;28;20040;-91
2021/10/10 02:35:12;;;;;;;14.68;9.98;;;9.20;90.70;;;;;;2098431;28;20526;-90
2021/10/10 02:36:31;;;;;;;13.75;10.20;;;9.20;90.70;;;;;;2100445;28;20056;-90
2021/10/10 02:37:50;;;;;;;14.25;9.82;;;9.20;90.70;;;;;;2107958;28;20028;-91
2021/10/10 02:39:10;;;;;;;13.43;9.70;;;9.20;90.70;;;;;;2107928;28;20048;-90
2021/10/10 02:40:29;;;;;;;14.13;10.27;;;9.20;90.70;;;;;;2107820;28;20024;-91
2021/10/10 02:41:48;;;;;;;15.52;10.57;;;9.20;90.70;;;;;;2105817;28;20119;-91
2021/10/10 02:43:07;;;;;;;13.20;9.98;;;9.20;90.70;;;;;;2107075;28;20032;-90
2021/10/10 02:44:27;;;;;;;13.43;9.93;;;9.20;90.70;;;;;;2103688;28;20111;-91
2021/10/10 02:45:46;;;;;;;15.32;10.75;;;9.20;90.70;;;;;;2103507;28;20037;-91
2021/10/10 02:47:05;;;;;;;13.38;10.25;;;9.20;90.70;;;;;;2100234;28;20494;-91
2021/10/10 02:48:25;;;;;;;13.25;9.90;;;9.10;91.00;;;;;;2105013;28;20080;-90
2021/10/10 02:49:44;;;;;;;15.75;10.77;;;9.20;90.70;;;;;;2106464;28;20526;-90
2021/10/10 02:51:03;;;;;;;14.73;9.98;;;9.10;91.00;;;;;;2105391;28;20032;-91
2021/10/10 02:52:23;;;;;;;16.42;10.85;;;9.10;90.70;;;;;;2107525;28;20567;-91
2021/10/10 02:53:42;;;;;;;14.55;10.50;;;9.10;90.80;;;;;;2106322;28;20064;-91
2021/10/10 02:55:02;;;;;;;13.07;10.10;;;9.10;90.80;;;;;;2107342;28;20048;-90
2021/10/10 02:56:21;;;;;;;14.43;10.43;;;9.10;90.80;;;;;;2107406;28;20413;-90
2021/10/10 02:57:40;;;;;;;14.98;10.13;;;9.10;90.80;;;;;;2101078;28;20036;-90
2021/10/10 02:59:00;;;;;;;13.95;10.50;;;9.10;90.80;;;;;;2099040;28;20080;-90
2021/10/10 03:00:19;;;;;;;13.90;10.25;;;9.10;90.80;;;;;;2106874;28;20024;-91
2021/10/10 03:01:38;;;;;;;14.38;10.80;;;9.00;90.80;;;;;;2115571;28;20452;-91
2021/10/10 03:02:58;;;;;;;15.43;10.70;;;9.00;90.80;;;;;;2098226;28;20033;-90
2021/10/10 03:04:17;;;;;;;13.43;10.30;;;9.00;90.80;;;;;;2095516;28;20044;-90
2021/10/10 03:05:36;;;;;;;14.63;10.48;;;9.00;90.80;;;;;;2095311;28;20115;-91
2021/10/10 03:06:55;;;;;;;16.67;11.13;;;9.00;90.80;;;;;;2099441;28;20052;-91
2021/10/10 03:08:15;;;;;;;15.63;10.65;;;8.90;90.80;;;;;;2099533;28;20048;-90
2021/10/10 03:09:34;;;;;;;13.15;9.88;;;9.00;90.80;;;;;;2103316;28;20028;-91
2021/10/10 03:10:53;;;;;;;16.00;10.52;;;9.00;90.80;;;;;;2106951;28;20123;-90
2021/10/10 03:12:12;;;;;;;13.90;10.60;;;9.00;90.80;;;;;;2104657;28;20032;-90
2021/10/10 03:13:32;;;;;;;13.98;10.18;;;9.00;90.90;;;;;;2107570;28;20047;-91
2021/10/10 03:14:51;;;;;;;15.45;10.75;;;8.90;90.90;;;;;;2106437;28;20044;-91
2021/10/10 03:16:10;;;;;;;15.05;10.50;;;8.90;90.90;;;;;;2101939;28;20115;-90
2021/10/10 03:17:29;;;;;;;14.70;10.07;;;8.90;90.90;;;;;;2104396;28;20024;-90
2021/10/10 03:18:48;;;;;;;14.20;9.80;;;8.90;90.90;;;;;;2106832;28;20044;-91
2021/10/10 03:20:08;;;;;;;14.48;10.35;;;8.90;90.90;;;;;;2106844;28;20031;-91
2021/10/10 03:21:27;;;;;;;14.05;10.20;;;8.90;90.90;;;;;;2106419;28;20457;-91
2021/10/10 03:22:47;;;;;;;14.02;10.43;;;8.90;90.90;;;;;;2106721;28;20039;-89
2021/10/10 03:24:06;;;;;;;14.70;11.25;;;8.90;90.90;;;;;;2090094;28;20554;-90
2021/10/10 03:25:25;;;;;;;13.40;9.88;;;8.90;90.90;;;;;;2100618;28;20036;-90
2021/10/10 03:26:44;;;;;;;15.48;11.10;;;8.90;90.90;;;;;;2101533;28;20036;-90
2021/10/10 03:28:04;;;;;;;14.23;10.50;;;8.90;90.90;;;;;;2096738;28;20129;-91
2021/10/10 03:29:23;;;;;;;15.20;10.55;;;8.90;90.90;;;;;;2104606;28;20044;-89
2021/10/10 03:30:42;;;;;;;14.63;10.23;;;8.80;90.90;;;;;;2102328;28;20112;-91
2021/10/10 03:32:02;;;;;;;14.93;10.60;;;8.80;91.00;;;;;;2107685;28;20032;-90
2021/10/10 03:33:21;;;;;;;14.93;10.60;;;8.80;91.00;;;;;;2106090;28;20052;-90
2021/10/10 03:34:40;;;;;;;15.13;10.30;;;8.80;91.00;;;;;;2108158;28;20035;-90
2021/10/10 03:35:59;;;;;;;13.13;10.15;;;8.80;91.00;;;;;;2098754;28;20049;-90
2021/10/10 03:37:19;;;;;;;13.95;10.35;;;8.80;91.00;;;;;;2091349;28;20028;-91
2021/10/10 03:38:38;;;;;;;14.70;10.38;;;8.80;91.00;;;;;;2102958;28;20122;-90
2021/10/10 03:39:58;;;;;;;14.68;10.40;;;8.70;91.00;;;;;;2106720;28;20068;-90
2021/10/10 03:41:17;;;;;;;13.73;10.18;;;8.70;91.00;;;;;;2107153;28;20406;-90
2021/10/10 03:42:37;;;;;;;14.27;10.13;;;8.70;91.10;;;;;;2098323;28;20078;-90
2021/10/10 03:43:56;;;;;;;14.82;10.68;;;8.70;91.10;;;;;;2095523;28;20032;-90
2021/10/10 03:45:16;;;;;;;13.88;10.10;;;8.70;91.10;;;;;;2098441;28;20044;-90
2021/10/10 03:46:35;;;;;;;13.73;10.50;;;8.70;91.10;;;;;;2106644;28;20040;-90
2021/10/10 03:47:54;;;;;;;14.93;10.30;;;8.70;91.10;;;;;;2106059;28;20032;-90
2021/10/10 03:49:13;;;;;;;12.98;10.20;;;8.70;91.10;;;;;;2106916;28;20036;-90
2021/10/10 03:50:32;;;;;;;14.93;10.50;;;8.60;91.10;;;;;;2090201;28;20045;-90
2021/10/10 03:51:52;;;;;;;13.90;10.38;;;8.70;91.20;;;;;;2103302;28;20040;-90
2021/10/10 03:53:11;;;;;;;14.95;10.93;;;8.60;91.20;;;;;;2103195;28;20036;-90
2021/10/10 03:56:10;;;;;;;15.15;10.73;;;8.60;91.20;;;;;;2104042;28;20471;-88
2021/10/10 03:57:29;;;;;;;15.50;11.05;;;8.60;91.20;;;;;;2098304;28;20040;-90
2021/10/10 03:58:48;;;;;;;14.75;10.65;;;8.60;91.20;;;;;;2097013;28;20044;-90
2021/10/10 04:00:11;;;;;;;14.98;10.48;;;8.60;91.20;;;;;;2100574;28;20044;-91
2021/10/10 04:01:30;;;;;;;15.50;10.50;;;8.60;91.50;;;;;;2106848;28;20040;-90
2021/10/10 04:02:50;;;;;;;15.23;11.05;;;8.60;91.20;;;;;;2106065;28;20040;-90
2021/10/10 04:04:10;;;;;;;15.25;11.30;;;8.60;91.20;;;;;;2107047;28;20409;-91
2021/10/10 04:06:52;;;;;;;15.32;10.57;;;8.60;91.30;;;;;;2107235;28;20040;-91
2021/10/10 04:08:11;;;;;;;13.88;10.55;;;8.50;91.20;;;;;;2106822;28;20044;-91
2021/10/10 04:09:30;;;;;;;14.68;10.65;;;8.50;91.20;;;;;;2098388;28;20071;-91
2021/10/10 04:10:49;;;;;;;16.17;10.90;;;8.50;91.20;;;;;;2111431;28;20553;-90
2021/10/10 04:12:09;;;;;;;16.50;11.25;;;8.50;91.20;;;;;;2110232;28;20044;-90
2021/10/10 04:13:28;;;;;;;15.45;11.38;;;8.50;91.20;;;;;;2104228;28;20474;-90
2021/10/10 04:14:47;;;;;;;15.15;10.82;;;8.50;91.30;;;;;;2106181;28;20048;-90
2021/10/10 04:16:06;;;;;;;14.00;10.57;;;8.50;91.30;;;;;;2103222;28;20071;-91
2021/10/10 04:17:26;;;;;;;14.77;11.18;;;8.50;91.30;;;;;;2106468;28;20040;-90
2021/10/10 04:18:45;;;;;;;15.73;11.05;;;8.40;91.30;;;;;;2106604;28;20044;-90
2021/10/10 04:20:04;;;;;;;15.20;11.15;;;8.40;91.30;;;;;;2106586;28;20035;-91
2021/10/10 04:21:23;;;;;;;15.45;11.88;;;8.50;91.30;;;;;;2105759;28;20052;-91
2021/10/10 04:22:43;;;;;;;15.20;11.00;;;8.40;91.20;;;;;;2097595;28;20045;-91
2021/10/10 04:24:03;;;;;;;14.32;10.80;;;8.50;91.30;;;;;;2095764;28;20040;-90
2021/10/10 04:25:22;;;;;;;14.93;10.93;;;8.50;91.20;;;;;;2106366;28;20040;-91
2021/10/10 04:26:41;;;;;;;14.68;10.98;;;8.50;91.20;;;;;;2106219;28;20357;-90
2021/10/10 04:28:00;;;;;;;15.70;11.55;;;8.50;91.20;;;;;;2104186;28;20036;-90
2021/10/10 04:29:20;;;;;;;14.98;11.55;;;8.50;91.50;;;;;;2089937;28;20072;-90
2021/10/10 04:30:39;;;;;;;15.07;11.75;;;8.40;91.20;;;;;;2102644;28;20036;-90
2021/10/10 04:31:58;;;;;;;16.13;11.57;;;8.40;91.20;;;;;;2090513;28;20500;-90
2021/10/10 04:33:18;;;;;;;16.13;11.20;;;8.40;91.30;;;;;;2099565;28;20052;-90
2021/10/10 04:34:37;;;;;;;14.18;10.20;;;8.40;91.30;;;;;;2103079;28;20044;-91
2021/10/10 04:35:56;;;;;;;15.82;11.30;;;8.40;91.30;;;;;;2101924;28;20530;-91
2021/10/10 04:37:16;;;;;;;17.40;12.02;;;8.40;91.30;;;;;;2108411;28;20037;-90
2021/10/10 04:38:35;;;;;;;13.90;11.13;;;8.30;91.30;;;;;;2108650;28;20070;-90
2021/10/10 04:39:54;;;;;;;15.68;11.38;;;8.30;91.30;;;;;;2107094;28;20083;-90
2021/10/10 04:41:13;;;;;;;14.52;10.93;;;8.30;91.30;;;;;;2104609;28;20036;-91
2021/10/10 04:42:34;;;;;;;14.68;10.82;;;8.30;91.30;;;;;;2108380;28;20036;-90
2021/10/10 04:43:54;;;;;;;16.05;11.63;;;8.30;91.30;;;;;;2107783;28;20413;-90
2021/10/10 04:45:13;;;;;;;17.85;12.02;;;8.30;91.30;;;;;;2100151;28;20044;-90
2021/10/10 04:46:32;;;;;;;15.85;11.25;;;8.30;91.30;;;;;;2100363;28;20028;-91
2021/10/10 04:47:51;;;;;;;15.75;12.00;;;8.30;91.30;;;;;;2113401;28;20040;-90
2021/10/10 04:49:11;;;;;;;16.60;12.02;;;8.30;91.30;;;;;;2101044;28;20098;-90
2021/10/10 04:50:30;;;;;;;16.33;11.73;;;8.30;91.30;;;;;;2107532;28;20409;-91
2021/10/10 04:51:49;;;;;;;17.80;12.32;;;8.30;91.30;;;;;;2100488;28;20032;-90
2021/10/10 04:53:09;;;;;;;15.98;12.00;;;8.30;91.30;;;;;;2091180;28;20066;-90
2021/10/10 04:54:29;;;;;;;15.65;11.88;;;8.30;91.20;;;;;;2101563;28;20036;-90
2021/10/10 04:55:48;;;;;;;14.68;11.50;;;8.30;91.20;;;;;;2095788;28;20032;-91
2021/10/10 04:57:07;;;;;;;15.57;11.43;;;8.30;91.20;;;;;;2090503;28;20055;-90
2021/10/10 04:58:27;;;;;;;17.48;11.57;;;8.30;91.20;;;;;;2092648;28;20048;-90
2021/10/10 04:59:52;;;;;;;17.40;12.32;;;8.30;91.20;;;;;;2104120;28;20048;-91
2021/10/10 05:01:11;;;;;;;17.10;11.93;;;8.30;91.20;;;;;;2106753;28;20044;-90
2021/10/10 05:02:31;;;;;;;15.60;11.43;;;8.30;91.20;;;;;;2108064;28;20036;-91
2021/10/10 05:03:50;;;;;;;16.15;11.60;;;8.20;91.20;;;;;;2108118;28;20040;-90
2021/10/10 05:05:09;;;;;;;15.95;11.90;;;8.20;91.30;;;;;;2099434;28;20461;-90
2021/10/10 05:06:28;;;;;;;15.23;11.30;;;8.20;91.30;;;;;;2099953;28;20413;-90
2021/10/10 05:07:48;;;;;;;15.38;11.02;;;8.20;91.30;;;;;;2099667;28;20069;-89
2021/10/10 05:09:07;;;;;;;16.10;12.23;;;8.20;91.30;;;;;;2096328;28;20049;-89
2021/10/10 05:10:26;;;;;;;16.70;11.73;;;8.20;91.30;;;;;;2107970;28;20036;-91
2021/10/10 05:11:45;;;;;;;15.75;11.48;;;8.20;91.30;;;;;;2108347;28;20032;-90
2021/10/10 05:13:04;;;;;;;15.60;11.63;;;8.20;91.30;;;;;;2107929;28;20047;-91
2021/10/10 05:14:23;;;;;;;14.88;11.38;;;8.20;91.60;;;;;;2107874;28;20044;-91
2021/10/10 05:15:42;;;;;;;16.45;11.82;;;8.20;91.30;;;;;;2106836;28;20036;-90
2021/10/10 05:17:02;;;;;;;16.83;11.80;;;8.20;91.30;;;;;;2111909;28;20035;-91
2021/10/10 05:18:21;;;;;;;15.23;11.40;;;8.20;91.30;;;;;;2107933;27;20044;-90
2021/10/10 05:19:40;;;;;;;15.00;11.40;;;8.20;91.30;;;;;;2105580;28;20056;-90
2021/10/10 05:20:59;;;;;;;15.32;11.23;;;8.20;91.30;;;;;;2095839;28;20423;-91
2021/10/10 05:22:19;;;;;;;16.10;11.13;;;8.20;91.30;;;;;;2109627;28;20040;-90
2021/10/10 05:23:38;;;;;;;16.75;12.07;;;8.20;91.30;;;;;;2111043;28;20490;-90
2021/10/10 05:24:59;;;;;;;16.13;11.70;;;8.20;91.30;;;;;;2107669;28;20554;-91
2021/10/10 05:26:18;;;;;;;14.90;11.60;;;8.10;91.20;;;;;;2096506;28;20041;-90
2021/10/10 05:27:38;;;;;;;15.60;11.38;;;8.10;91.20;;;;;;2091068;28;20443;-90
2021/10/10 05:28:58;;;;;;;16.08;11.52;;;8.10;91.30;;;;;;2099554;28;20052;-89
2021/10/10 05:30:17;;;;;;;15.18;11.07;;;8.10;91.20;;;;;;2105926;28;20386;-90
2021/10/10 05:31:36;;;;;;;16.95;11.57;;;8.10;91.20;;;;;;2099258;28;20041;-90
2021/10/10 05:32:56;;;;;;;16.35;11.45;;;8.10;91.20;;;;;;2095130;28;20036;-90
2021/10/10 05:34:15;;;;;;;16.48;11.68;;;8.10;91.20;;;;;;2103094;28;20044;-90
2021/10/10 05:35:36;;;;;;;17.23;12.40;;;8.10;91.30;;;;;;2107770;28;20079;-89
2021/10/10 05:36:55;;;;;;;15.90;11.57;;;8.10;91.30;;;;;;2104688;28;20028;-90
2021/10/10 05:38:14;;;;;;;16.08;11.75;;;8.10;91.20;;;;;;2108878;28;20099;-90
2021/10/10 05:39:34;;;;;;;16.50;11.98;;;8.10;91.50;;;;;;2108097;28;20072;-91
2021/10/10 05:40:53;;;;;;;16.42;12.30;;;8.10;91.60;;;;;;2098807;28;20468;-91
2021/10/10 05:42:12;;;;;;;16.05;12.18;;;8.10;91.30;;;;;;2096324;28;20128;-90
2021/10/10 05:43:32;;;;;;;15.38;12.02;;;8.00;91.30;;;;;;2104691;28;20044;-91
2021/10/10 05:44:51;;;;;;;15.68;11.55;;;8.10;91.30;;;;;;2112121;28;20558;-90
2021/10/10 05:46:10;;;;;;;16.20;11.88;;;8.10;91.30;;;;;;2090963;28;20045;-90
2021/10/10 05:47:30;;;;;;;15.35;11.23;;;8.10;91.30;;;;;;2101433;28;20051;-90
2021/10/10 05:48:49;;;;;;;16.00;11.32;;;8.10;91.30;;;;;;2099233;28;20044;-91
2021/10/10 05:50:09;;;;;;;14.75;11.23;;;8.00;91.30;;;;;;2103147;28;20071;-91
2021/10/10 05:51:28;;;;;;;15.77;11.23;;;8.00;91.30;;;;;;2114337;28;20033;-90
2021/10/10 05:52:47;;;;;;;18.00;11.80;;;8.00;91.30;;;;;;2115838;28;20040;-89
2021/10/10 05:54:09;;;;;;;15.68;11.65;;;8.00;91.30;;;;;;2099943;28;20048;-90
2021/10/10 05:55:29;;;;;;;15.77;11.77;;;8.00;91.30;;;;;;2099324;28;20131;-90
2021/10/10 05:56:48;;;;;;;14.35;10.98;;;8.00;91.30;;;;;;2102128;28;20546;-90
2021/10/10 05:58:14;;;;;;;14.60;10.45;;;8.00;91.30;;;;;;2095400;28;20095;-91
2021/10/10 05:59:34;;;;;;;14.13;10.60;;;8.00;91.30;;;;;;2087364;28;20044;-90
2021/10/10 06:00:54;;;;;;;14.98;10.77;;;8.00;91.30;;;;;;2098625;28;20131;-91
2021/10/10 06:02:13;;;;;;;15.45;11.25;;;8.00;91.30;;;;;;2099789;28;20494;-90
2021/10/10 06:03:33;;;;;;;15.40;11.38;;;8.00;91.30;;;;;;2108704;28;20044;-91
2021/10/10 06:04:52;;;;;;;13.95;10.15;;;8.00;91.30;;;;;;2091965;28;20041;-89
2021/10/10 06:06:12;;;;;;;15.25;11.05;;;8.00;91.30;;;;;;2099577;28;20491;-89
2021/10/10 06:07:31;;;;;;;14.45;10.63;;;8.00;91.30;;;;;;2104586;28;20040;-91
2021/10/10 06:08:50;;;;;;;14.93;11.27;;;8.00;91.30;;;;;;2097945;28;20037;-90
2021/10/10 06:10:10;;;;;;;14.88;10.90;;;8.00;91.30;;;;;;2100063;28;20434;-90
2021/10/10 06:11:29;;;;;;;15.83;11.07;;;8.00;91.30;;;;;;2095243;28;20116;-90
2021/10/10 06:12:49;;;;;;;14.57;10.52;;;8.00;91.30;;;;;;2103511;28;20266;-91
2021/10/10 06:14:09;;;;;;;16.15;11.23;;;8.00;91.30;;;;;;2090687;28;20546;-91
2021/10/10 06:15:28;;;;;;;16.95;11.40;;;8.00;91.30;;;;;;2095873;28;20462;-91
2021/10/10 06:16:47;;;;;;;15.60;11.43;;;8.00;91.30;;;;;;2102465;28;20464;-91
2021/10/10 06:18:08;;;;;;;16.20;11.57;;;8.00;91.30;;;;;;2112131;28;20059;-90
2021/10/10 06:19:30;;;;;;;16.73;11.55;;;8.00;91.30;;;;;;2109772;28;20044;-90
2021/10/10 06:20:49;;;;;;;16.45;11.35;;;8.00;91.30;;;;;;2107953;28;20051;-90
2021/10/10 06:22:08;;;;;;;16.58;11.63;;;8.00;91.30;;;;;;2106407;28;20044;-90
2021/10/10 06:23:28;;;;;;;14.70;11.13;;;8.00;91.20;;;;;;2111984;28;20071;-90
2021/10/10 06:24:47;;;;;;;15.05;11.50;;;8.10;91.20;;;;;;2107471;28;20441;-91
2021/10/10 06:26:06;;;;;;;15.38;11.20;;;8.10;91.20;;;;;;2112001;28;20155;-90
2021/10/10 06:27:25;;;;;;;15.35;10.75;;;8.10;91.20;;;;;;2114740;28;20079;-87
2021/10/10 06:28:45;;;;;;;14.73;10.75;;;8.10;91.20;;;;;;2116124;28;20115;-90
2021/10/10 06:30:04;;;;;;;13.55;10.55;;;8.10;91.50;;;;;;2104270;28;20044;-90
2021/10/10 06:31:24;;;;;;;14.43;10.43;;;8.20;91.30;;;;;;2103108;28;20028;-91
2021/10/10 06:32:43;;;;;;;13.65;9.57;;;8.20;91.30;;;;;;2110543;28;20039;-88
2021/10/10 06:34:02;;;;;;;13.00;9.98;;;8.20;91.20;;;;;;2098769;28;20434;-90
2021/10/10 06:35:21;;;;;;;13.65;9.90;;;8.20;91.20;;;;;;2104697;28;20501;-89
2021/10/10 06:36:40;;;;;;;13.23;9.88;;;8.20;91.20;;;;;;2108610;28;20036;-90
2021/10/10 06:37:59;;;;;;;12.05;8.73;;;8.30;91.20;;;;;;2109890;28;20036;-90
2021/10/10 06:39:19;;;;;;;12.57;9.18;;;8.30;91.20;;;;;;2100405;28;20041;-90
2021/10/10 06:40:38;;;;;;;12.05;9.20;;;8.30;91.20;;;;;;2103980;28;20044;-90
2021/10/10 06:41:58;;;;;;;12.93;9.63;;;8.30;91.20;;;;;;2114253;28;20162;-90
2021/10/10 06:43:17;;;;;;;12.65;9.07;;;8.30;91.30;;;;;;2107038;28;20040;-90
2021/10/10 06:44:36;;;;;;;13.07;9.30;;;8.30;91.20;;;;;;2103876;28;20040;-90
2021/10/10 06:45:55;;;;;;;12.35;9.00;;;8.30;91.40;;;;;;2112246;28;20039;-89
2021/10/10 06:47:15;;;;;;;12.40;9.07;;;8.30;91.20;;;;;;2103353;28;20044;-89
2021/10/10 06:48:35;;;;;;;13.27;9.25;;;8.40;91.20;;;;;;2103943;28;20494;-90
2021/10/10 06:49:54;;;;;;;12.43;9.15;;;8.40;91.10;;;;;;2112342;28;20067;-91
2021/10/10 06:51:13;;;;;;;13.68;9.85;;;8.40;91.10;;;;;;2098382;28;20036;-91
2021/10/10 06:52:32;;;;;;;11.93;9.30;;;8.40;91.10;;;;;;2099645;28;20070;-90
2021/10/10 06:53:51;;;;;;;12.48;9.23;;;8.40;91.00;;;;;;2100275;28;20119;-90